sensor_id;sensor_type;location;lat;lon;timestamp;P1;durP1;ratioP1;P2;durP2;ratioP2
22160;SDS011;49035;48.812;11.762;2023-11-21T00:02:05;17.35;;;3.20;;
22160;SDS011;49035;48.812;11.762;2023-11-21T00:04:31;8.50;;;3.15;;
22160;SDS011;49035;48.812;11.762;2023-11-21T00:06:57;8.57;;;2.83;;
22160;SDS011;49035;48.812;11.762;2023-11-21T00:09:23;10.07;;;3.38;;
22160;SDS011;49035;48.812;11.762;2023-11-21T00:11:48;11.60;;;3.63;;
22160;SDS011;49035;48.812;11.762;2023-11-21T00:14:14;13.70;;;3.70;;
22160;SDS011;49035;48.812;11.762;2023-11-21T00:16:42;6.68;;;3.15;;
22160;SDS011;49035;48.812;11.762;2023-11-21T00:19:08;11.32;;;3.67;;
22160;SDS011;49035;48.812;11.762;2023-11-21T00:21:34;11.18;;;3.30;;
22160;SDS011;49035;48.812;11.762;2023-11-21T00:23:59;8.48;;;3.47;;
22160;SDS011;49035;48.812;11.762;2023-11-21T00:26:25;8.50;;;4.05;;
22160;SDS011;49035;48.812;11.762;2023-11-21T00:28:50;11.48;;;3.85;;
22160;SDS011;49035;48.812;11.762;2023-11-21T00:31:16;9.27;;;3.67;;
22160;SDS011;49035;48.812;11.762;2023-11-21T00:33:42;10.80;;;4.10;;
22160;SDS011;49035;48.812;11.762;2023-11-21T00:36:08;11.95;;;3.53;;
22160;SDS011;49035;48.812;11.762;2023-11-21T00:38:35;6.88;;;3.42;;
22160;SDS011;49035;48.812;11.762;2023-11-21T00:41:01;10.32;;;4.18;;
22160;SDS011;49035;48.812;11.762;2023-11-21T00:43:27;10.57;;;3.25;;
22160;SDS011;49035;48.812;11.762;2023-11-21T00:45:53;16.05;;;3.92;;
22160;SDS011;49035;48.812;11.762;2023-11-21T00:48:19;8.75;;;3.63;;
22160;SDS011;49035;48.812;11.762;2023-11-21T00:50:44;10.18;;;3.80;;
22160;SDS011;49035;48.812;11.762;2023-11-21T00:53:10;8.30;;;3.47;;
22160;SDS011;49035;48.812;11.762;2023-11-21T00:55:36;10.27;;;4.32;;
22160;SDS011;49035;48.812;11.762;2023-11-21T00:58:04;13.40;;;4.72;;
22160;SDS011;49035;48.812;11.762;2023-11-21T01:00:31;8.57;;;3.65;;
22160;SDS011;49035;48.812;11.762;2023-11-21T01:03:00;9.02;;;3.50;;
22160;SDS011;49035;48.812;11.762;2023-11-21T01:05:25;13.82;;;3.80;;
22160;SDS011;49035;48.812;11.762;2023-11-21T01:07:51;9.20;;;3.35;;
22160;SDS011;49035;48.812;11.762;2023-11-21T01:10:17;17.27;;;4.45;;
22160;SDS011;49035;48.812;11.762;2023-11-21T01:12:43;8.23;;;3.53;;
22160;SDS011;49035;48.812;11.762;2023-11-21T01:15:09;13.57;;;3.92;;
22160;SDS011;49035;48.812;11.762;2023-11-21T01:17:37;15.25;;;4.15;;
22160;SDS011;49035;48.812;11.762;2023-11-21T01:20:03;13.07;;;3.58;;
22160;SDS011;49035;48.812;11.762;2023-11-21T01:22:36;8.75;;;3.53;;
22160;SDS011;49035;48.812;11.762;2023-11-21T01:25:02;8.10;;;3.50;;
22160;SDS011;49035;48.812;11.762;2023-11-21T01:27:31;4.93;;;3.30;;
22160;SDS011;49035;48.812;11.762;2023-11-21T01:29:57;9.63;;;3.88;;
22160;SDS011;49035;48.812;11.762;2023-11-21T01:32:22;14.02;;;4.22;;
22160;SDS011;49035;48.812;11.762;2023-11-21T01:34:49;10.93;;;3.45;;
22160;SDS011;49035;48.812;11.762;2023-11-21T01:37:15;15.27;;;3.70;;
22160;SDS011;49035;48.812;11.762;2023-11-21T01:39:42;14.93;;;4.00;;
22160;SDS011;49035;48.812;11.762;2023-11-21T01:42:10;8.82;;;3.45;;
22160;SDS011;49035;48.812;11.762;2023-11-21T01:44:37;5.68;;;3.42;;
22160;SDS011;49035;48.812;11.762;2023-11-21T01:47:04;10.30;;;3.83;;
22160;SDS011;49035;48.812;11.762;2023-11-21T01:49:33;7.28;;;3.53;;
22160;SDS011;49035;48.812;11.762;2023-11-21T01:51:59;12.32;;;4.07;;
22160;SDS011;49035;48.812;11.762;2023-11-21T01:54:25;13.95;;;4.30;;
22160;SDS011;49035;48.812;11.762;2023-11-21T01:56:51;11.13;;;3.97;;
22160;SDS011;49035;48.812;11.762;2023-11-21T01:59:18;7.05;;;3.90;;
22160;SDS011;49035;48.812;11.762;2023-11-21T02:01:48;6.22;;;3.90;;
22160;SDS011;49035;48.812;11.762;2023-11-21T02:04:18;7.07;;;3.90;;
22160;SDS011;49035;48.812;11.762;2023-11-21T02:06:46;8.75;;;3.35;;
22160;SDS011;49035;48.812;11.762;2023-11-21T02:09:11;6.97;;;3.75;;
22160;SDS011;49035;48.812;11.762;2023-11-21T02:11:40;5.60;;;3.05;;
22160;SDS011;49035;48.812;11.762;2023-11-21T02:14:05;11.63;;;3.88;;
22160;SDS011;49035;48.812;11.762;2023-11-21T02:16:34;6.63;;;3.63;;
22160;SDS011;49035;48.812;11.762;2023-11-21T02:19:00;10.73;;;4.25;;
22160;SDS011;49035;48.812;11.762;2023-11-21T02:21:28;12.90;;;4.40;;
22160;SDS011;49035;48.812;11.762;2023-11-21T02:23:55;10.70;;;3.88;;
22160;SDS011;49035;48.812;11.762;2023-11-21T02:26:20;11.50;;;3.75;;
22160;SDS011;49035;48.812;11.762;2023-11-21T02:28:46;10.60;;;4.05;;
22160;SDS011;49035;48.812;11.762;2023-11-21T02:31:12;12.60;;;3.67;;
22160;SDS011;49035;48.812;11.762;2023-11-21T02:33:38;14.13;;;4.53;;
22160;SDS011;49035;48.812;11.762;2023-11-21T02:36:04;10.18;;;4.22;;
22160;SDS011;49035;48.812;11.762;2023-11-21T02:38:30;10.60;;;4.70;;
22160;SDS011;49035;48.812;11.762;2023-11-21T02:40:57;14.75;;;4.68;;
22160;SDS011;49035;48.812;11.762;2023-11-21T02:43:24;11.80;;;5.03;;
22160;SDS011;49035;48.812;11.762;2023-11-21T02:45:49;9.57;;;4.27;;
22160;SDS011;49035;48.812;11.762;2023-11-21T02:48:15;9.93;;;4.50;;
22160;SDS011;49035;48.812;11.762;2023-11-21T02:50:40;13.63;;;5.10;;
22160;SDS011;49035;48.812;11.762;2023-11-21T02:53:08;12.27;;;4.70;;
22160;SDS011;49035;48.812;11.762;2023-11-21T02:55:35;9.85;;;4.60;;
22160;SDS011;49035;48.812;11.762;2023-11-21T02:58:01;9.05;;;4.75;;
22160;SDS011;49035;48.812;11.762;2023-11-21T03:00:28;11.20;;;4.97;;
22160;SDS011;49035;48.812;11.762;2023-11-21T03:02:55;14.48;;;4.78;;
22160;SDS011;49035;48.812;11.762;2023-11-21T03:05:21;13.40;;;5.30;;
22160;SDS011;49035;48.812;11.762;2023-11-21T03:07:46;12.95;;;5.05;;
22160;SDS011;49035;48.812;11.762;2023-11-21T03:10:12;12.73;;;4.85;;
22160;SDS011;49035;48.812;11.762;2023-11-21T03:12:38;8.02;;;4.75;;
22160;SDS011;49035;48.812;11.762;2023-11-21T03:15:07;10.30;;;4.47;;
22160;SDS011;49035;48.812;11.762;2023-11-21T03:17:36;11.52;;;5.40;;
22160;SDS011;49035;48.812;11.762;2023-11-21T03:20:01;15.07;;;5.57;;
22160;SDS011;49035;48.812;11.762;2023-11-21T03:22:28;11.18;;;4.90;;
22160;SDS011;49035;48.812;11.762;2023-11-21T03:24:54;9.75;;;5.28;;
22160;SDS011;49035;48.812;11.762;2023-11-21T03:27:20;8.20;;;5.20;;
22160;SDS011;49035;48.812;11.762;2023-11-21T03:29:45;9.68;;;4.68;;
22160;SDS011;49035;48.812;11.762;2023-11-21T03:32:11;11.63;;;4.68;;
22160;SDS011;49035;48.812;11.762;2023-11-21T03:34:41;11.65;;;5.05;;
22160;SDS011;49035;48.812;11.762;2023-11-21T03:37:21;8.95;;;4.68;;
22160;SDS011;49035;48.812;11.762;2023-11-21T03:39:47;11.57;;;4.95;;
22160;SDS011;49035;48.812;11.762;2023-11-21T03:42:13;11.80;;;4.78;;
22160;SDS011;49035;48.812;11.762;2023-11-21T03:44:38;12.18;;;5.13;;
22160;SDS011;49035;48.812;11.762;2023-11-21T03:47:04;10.95;;;4.80;;
22160;SDS011;49035;48.812;11.762;2023-11-21T03:49:30;13.93;;;4.57;;
22160;SDS011;49035;48.812;11.762;2023-11-21T03:51:56;10.93;;;4.53;;
22160;SDS011;49035;48.812;11.762;2023-11-21T03:54:21;13.90;;;4.80;;
22160;SDS011;49035;48.812;11.762;2023-11-21T03:56:47;18.02;;;5.07;;
22160;SDS011;49035;48.812;11.762;2023-11-21T03:59:12;11.48;;;4.85;;
22160;SDS011;49035;48.812;11.762;2023-11-21T04:01:38;14.98;;;5.25;;
22160;SDS011;49035;48.812;11.762;2023-11-21T04:04:03;13.23;;;5.73;;
22160;SDS011;49035;48.812;11.762;2023-11-21T04:06:29;13.38;;;5.90;;
22160;SDS011;49035;48.812;11.762;2023-11-21T04:08:55;15.50;;;6.22;;
22160;SDS011;49035;48.812;11.762;2023-11-21T04:11:21;30.90;;;10.30;;
22160;SDS011;49035;48.812;11.762;2023-11-21T04:13:46;15.75;;;7.65;;
22160;SDS011;49035;48.812;11.762;2023-11-21T04:16:12;11.60;;;6.45;;
22160;SDS011;49035;48.812;11.762;2023-11-21T04:18:38;12.35;;;6.30;;
22160;SDS011;49035;48.812;11.762;2023-11-21T04:21:07;8.75;;;5.45;;
22160;SDS011;49035;48.812;11.762;2023-11-21T04:23:33;12.35;;;4.88;;
22160;SDS011;49035;48.812;11.762;2023-11-21T04:26:00;9.15;;;5.43;;
22160;SDS011;49035;48.812;11.762;2023-11-21T04:28:27;16.85;;;7.40;;
22160;SDS011;49035;48.812;11.762;2023-11-21T04:30:52;10.30;;;5.75;;
22160;SDS011;49035;48.812;11.762;2023-11-21T04:33:18;14.07;;;5.70;;
22160;SDS011;49035;48.812;11.762;2023-11-21T04:35:44;13.30;;;5.43;;
22160;SDS011;49035;48.812;11.762;2023-11-21T04:38:09;14.55;;;5.05;;
22160;SDS011;49035;48.812;11.762;2023-11-21T04:40:35;11.38;;;5.47;;
22160;SDS011;49035;48.812;11.762;2023-11-21T04:43:01;10.93;;;5.47;;
22160;SDS011;49035;48.812;11.762;2023-11-21T04:45:26;9.65;;;5.13;;
22160;SDS011;49035;48.812;11.762;2023-11-21T04:47:52;10.83;;;5.20;;
22160;SDS011;49035;48.812;11.762;2023-11-21T04:50:18;8.27;;;4.90;;
22160;SDS011;49035;48.812;11.762;2023-11-21T04:52:44;12.27;;;4.70;;
22160;SDS011;49035;48.812;11.762;2023-11-21T04:55:10;9.07;;;4.53;;
22160;SDS011;49035;48.812;11.762;2023-11-21T04:57:36;11.65;;;4.60;;
22160;SDS011;49035;48.812;11.762;2023-11-21T05:00:02;9.17;;;4.03;;
22160;SDS011;49035;48.812;11.762;2023-11-21T05:02:30;13.07;;;4.00;;
22160;SDS011;49035;48.812;11.762;2023-11-21T05:04:59;8.68;;;3.80;;
22160;SDS011;49035;48.812;11.762;2023-11-21T05:07:24;7.95;;;3.58;;
22160;SDS011;49035;48.812;11.762;2023-11-21T05:09:55;16.20;;;3.67;;
22160;SDS011;49035;48.812;11.762;2023-11-21T05:12:24;8.30;;;3.65;;
22160;SDS011;49035;48.812;11.762;2023-11-21T05:14:50;16.30;;;4.18;;
22160;SDS011;49035;48.812;11.762;2023-11-21T05:17:16;7.45;;;3.95;;
22160;SDS011;49035;48.812;11.762;2023-11-21T05:19:42;6.75;;;3.70;;
22160;SDS011;49035;48.812;11.762;2023-11-21T05:22:08;11.27;;;4.32;;
22160;SDS011;49035;48.812;11.762;2023-11-21T05:24:33;12.30;;;4.00;;
22160;SDS011;49035;48.812;11.762;2023-11-21T05:27:00;11.38;;;3.88;;
22160;SDS011;49035;48.812;11.762;2023-11-21T05:29:25;10.32;;;3.90;;
22160;SDS011;49035;48.812;11.762;2023-11-21T05:31:51;13.82;;;4.20;;
22160;SDS011;49035;48.812;11.762;2023-11-21T05:34:18;9.32;;;4.38;;
22160;SDS011;49035;48.812;11.762;2023-11-21T05:36:43;11.65;;;4.40;;
22160;SDS011;49035;48.812;11.762;2023-11-21T05:39:10;9.73;;;3.97;;
22160;SDS011;49035;48.812;11.762;2023-11-21T05:41:36;9.90;;;3.92;;
22160;SDS011;49035;48.812;11.762;2023-11-21T05:44:02;8.60;;;3.90;;
22160;SDS011;49035;48.812;11.762;2023-11-21T05:46:28;12.77;;;4.07;;
22160;SDS011;49035;48.812;11.762;2023-11-21T05:48:53;15.75;;;4.53;;
22160;SDS011;49035;48.812;11.762;2023-11-21T05:51:19;6.45;;;4.05;;
22160;SDS011;49035;48.812;11.762;2023-11-21T05:53:45;11.35;;;3.92;;
22160;SDS011;49035;48.812;11.762;2023-11-21T05:56:11;12.40;;;4.40;;
22160;SDS011;49035;48.812;11.762;2023-11-21T05:58:38;10.05;;;4.25;;
22160;SDS011;49035;48.812;11.762;2023-11-21T06:01:05;9.90;;;4.28;;
22160;SDS011;49035;48.812;11.762;2023-11-21T06:03:37;11.15;;;3.53;;
22160;SDS011;49035;48.812;11.762;2023-11-21T06:06:03;15.48;;;4.50;;
22160;SDS011;49035;48.812;11.762;2023-11-21T06:08:29;14.07;;;4.38;;
22160;SDS011;49035;48.812;11.762;2023-11-21T06:10:55;12.65;;;4.10;;
22160;SDS011;49035;48.812;11.762;2023-11-21T06:13:20;8.20;;;4.03;;
22160;SDS011;49035;48.812;11.762;2023-11-21T06:15:49;11.50;;;4.35;;
22160;SDS011;49035;48.812;11.762;2023-11-21T06:18:15;10.23;;;4.35;;
22160;SDS011;49035;48.812;11.762;2023-11-21T06:20:44;14.73;;;4.15;;
22160;SDS011;49035;48.812;11.762;2023-11-21T06:23:10;12.43;;;4.60;;
22160;SDS011;49035;48.812;11.762;2023-11-21T06:25:35;9.05;;;4.32;;
22160;SDS011;49035;48.812;11.762;2023-11-21T06:28:02;8.05;;;4.13;;
22160;SDS011;49035;48.812;11.762;2023-11-21T06:30:27;23.02;;;4.72;;
22160;SDS011;49035;48.812;11.762;2023-11-21T06:32:54;14.27;;;5.22;;
22160;SDS011;49035;48.812;11.762;2023-11-21T06:35:20;12.13;;;5.30;;
22160;SDS011;49035;48.812;11.762;2023-11-21T06:37:45;11.00;;;5.60;;
22160;SDS011;49035;48.812;11.762;2023-11-21T06:40:14;15.70;;;6.20;;
22160;SDS011;49035;48.812;11.762;2023-11-21T06:42:40;18.10;;;6.70;;
22160;SDS011;49035;48.812;11.762;2023-11-21T06:45:06;20.92;;;7.18;;
22160;SDS011;49035;48.812;11.762;2023-11-21T06:47:32;17.73;;;7.38;;
22160;SDS011;49035;48.812;11.762;2023-11-21T06:49:58;20.27;;;8.07;;
22160;SDS011;49035;48.812;11.762;2023-11-21T06:52:25;22.67;;;10.30;;
22160;SDS011;49035;48.812;11.762;2023-11-21T06:54:50;25.65;;;8.63;;
22160;SDS011;49035;48.812;11.762;2023-11-21T06:57:16;16.48;;;7.43;;
22160;SDS011;49035;48.812;11.762;2023-11-21T06:59:42;15.98;;;6.45;;
22160;SDS011;49035;48.812;11.762;2023-11-21T07:02:07;12.57;;;5.00;;
22160;SDS011;49035;48.812;11.762;2023-11-21T07:04:34;11.50;;;5.40;;
22160;SDS011;49035;48.812;11.762;2023-11-21T07:07:01;14.98;;;5.93;;
22160;SDS011;49035;48.812;11.762;2023-11-21T07:09:31;15.80;;;5.20;;
22160;SDS011;49035;48.812;11.762;2023-11-21T07:11:57;16.50;;;5.55;;
22160;SDS011;49035;48.812;11.762;2023-11-21T07:14:23;11.82;;;5.32;;
22160;SDS011;49035;48.812;11.762;2023-11-21T07:16:48;8.20;;;5.53;;
22160;SDS011;49035;48.812;11.762;2023-11-21T07:19:14;11.48;;;5.20;;
22160;SDS011;49035;48.812;11.762;2023-11-21T07:21:40;16.10;;;5.57;;
22160;SDS011;49035;48.812;11.762;2023-11-21T07:24:06;14.40;;;5.30;;
22160;SDS011;49035;48.812;11.762;2023-11-21T07:26:33;10.07;;;4.75;;
22160;SDS011;49035;48.812;11.762;2023-11-21T07:29:00;9.73;;;4.88;;
22160;SDS011;49035;48.812;11.762;2023-11-21T07:31:27;18.17;;;5.28;;
22160;SDS011;49035;48.812;11.762;2023-11-21T07:33:54;10.18;;;4.88;;
22160;SDS011;49035;48.812;11.762;2023-11-21T07:36:22;10.90;;;4.47;;
22160;SDS011;49035;48.812;11.762;2023-11-21T07:38:47;9.98;;;4.63;;
22160;SDS011;49035;48.812;11.762;2023-11-21T07:41:13;16.63;;;5.10;;
22160;SDS011;49035;48.812;11.762;2023-11-21T07:43:42;16.20;;;5.63;;
22160;SDS011;49035;48.812;11.762;2023-11-21T07:46:08;16.35;;;5.30;;
22160;SDS011;49035;48.812;11.762;2023-11-21T07:48:34;14.63;;;5.55;;
22160;SDS011;49035;48.812;11.762;2023-11-21T07:51:03;10.05;;;5.45;;
22160;SDS011;49035;48.812;11.762;2023-11-21T07:53:29;9.63;;;4.60;;
22160;SDS011;49035;48.812;11.762;2023-11-21T07:55:55;16.95;;;5.13;;
22160;SDS011;49035;48.812;11.762;2023-11-21T07:58:22;11.68;;;5.47;;
22160;SDS011;49035;48.812;11.762;2023-11-21T08:00:48;10.45;;;5.25;;
22160;SDS011;49035;48.812;11.762;2023-11-21T08:03:15;12.18;;;5.20;;
22160;SDS011;49035;48.812;11.762;2023-11-21T08:05:41;8.98;;;4.53;;
22160;SDS011;49035;48.812;11.762;2023-11-21T08:08:06;12.95;;;4.85;;
22160;SDS011;49035;48.812;11.762;2023-11-21T08:10:32;12.27;;;4.80;;
22160;SDS011;49035;48.812;11.762;2023-11-21T08:12:58;8.23;;;3.92;;
22160;SDS011;49035;48.812;11.762;2023-11-21T08:15:24;9.90;;;4.25;;
22160;SDS011;49035;48.812;11.762;2023-11-21T08:17:50;6.18;;;4.30;;
22160;SDS011;49035;48.812;11.762;2023-11-21T08:20:15;10.93;;;4.10;;
22160;SDS011;49035;48.812;11.762;2023-11-21T08:22:43;6.35;;;4.35;;
22160;SDS011;49035;48.812;11.762;2023-11-21T08:25:09;8.50;;;4.15;;
22160;SDS011;49035;48.812;11.762;2023-11-21T08:27:35;10.15;;;4.13;;
22160;SDS011;49035;48.812;11.762;2023-11-21T08:30:02;12.20;;;4.35;;
22160;SDS011;49035;48.812;11.762;2023-11-21T08:32:28;7.72;;;4.30;;
22160;SDS011;49035;48.812;11.762;2023-11-21T08:34:57;15.70;;;4.80;;
22160;SDS011;49035;48.812;11.762;2023-11-21T08:37:23;16.42;;;4.40;;
22160;SDS011;49035;48.812;11.762;2023-11-21T08:39:49;11.50;;;4.70;;
22160;SDS011;49035;48.812;11.762;2023-11-21T08:42:14;11.05;;;4.53;;
22160;SDS011;49035;48.812;11.762;2023-11-21T08:44:40;7.05;;;4.78;;
22160;SDS011;49035;48.812;11.762;2023-11-21T08:47:06;12.68;;;5.63;;
22160;SDS011;49035;48.812;11.762;2023-11-21T08:49:32;9.68;;;5.45;;
22160;SDS011;49035;48.812;11.762;2023-11-21T08:51:58;9.55;;;5.85;;
22160;SDS011;49035;48.812;11.762;2023-11-21T08:54:25;9.75;;;5.25;;
22160;SDS011;49035;48.812;11.762;2023-11-21T08:56:54;10.25;;;5.40;;
22160;SDS011;49035;48.812;11.762;2023-11-21T08:59:20;14.30;;;6.35;;
22160;SDS011;49035;48.812;11.762;2023-11-21T09:01:46;12.98;;;7.47;;
22160;SDS011;49035;48.812;11.762;2023-11-21T09:04:12;11.45;;;7.10;;
22160;SDS011;49035;48.812;11.762;2023-11-21T09:06:39;11.77;;;7.55;;
22160;SDS011;49035;48.812;11.762;2023-11-21T09:09:05;15.95;;;8.85;;
22160;SDS011;49035;48.812;11.762;2023-11-21T09:11:31;17.98;;;8.23;;
22160;SDS011;49035;48.812;11.762;2023-11-21T09:13:59;14.38;;;8.38;;
22160;SDS011;49035;48.812;11.762;2023-11-21T09:16:25;15.93;;;9.30;;
22160;SDS011;49035;48.812;11.762;2023-11-21T09:18:50;21.52;;;9.85;;
22160;SDS011;49035;48.812;11.762;2023-11-21T09:21:16;23.92;;;10.55;;
22160;SDS011;49035;48.812;11.762;2023-11-21T09:23:43;28.00;;;10.70;;
22160;SDS011;49035;48.812;11.762;2023-11-21T09:26:09;24.80;;;11.60;;
22160;SDS011;49035;48.812;11.762;2023-11-21T09:28:35;19.95;;;11.88;;
22160;SDS011;49035;48.812;11.762;2023-11-21T09:31:02;23.88;;;13.00;;
22160;SDS011;49035;48.812;11.762;2023-11-21T09:33:29;20.42;;;11.38;;
22160;SDS011;49035;48.812;11.762;2023-11-21T09:35:56;19.75;;;11.48;;
22160;SDS011;49035;48.812;11.762;2023-11-21T09:38:22;21.55;;;12.40;;
22160;SDS011;49035;48.812;11.762;2023-11-21T09:40:48;22.10;;;11.98;;
22160;SDS011;49035;48.812;11.762;2023-11-21T09:43:18;17.35;;;11.45;;
22160;SDS011;49035;48.812;11.762;2023-11-21T09:45:47;21.15;;;11.38;;
22160;SDS011;49035;48.812;11.762;2023-11-21T09:48:18;16.40;;;10.75;;
22160;SDS011;49035;48.812;11.762;2023-11-21T09:50:45;19.33;;;10.82;;
22160;SDS011;49035;48.812;11.762;2023-11-21T09:53:13;18.83;;;9.98;;
22160;SDS011;49035;48.812;11.762;2023-11-21T09:55:44;16.13;;;8.63;;
22160;SDS011;49035;48.812;11.762;2023-11-21T09:58:12;13.73;;;8.55;;
22160;SDS011;49035;48.812;11.762;2023-11-21T10:00:45;16.52;;;9.25;;
22160;SDS011;49035;48.812;11.762;2023-11-21T10:03:12;16.55;;;8.55;;
22160;SDS011;49035;48.812;11.762;2023-11-21T10:05:39;15.27;;;8.60;;
22160;SDS011;49035;48.812;11.762;2023-11-21T10:08:10;16.25;;;8.70;;
22160;SDS011;49035;48.812;11.762;2023-11-21T10:10:37;12.80;;;7.45;;
22160;SDS011;49035;48.812;11.762;2023-11-21T10:13:06;10.85;;;7.93;;
22160;SDS011;49035;48.812;11.762;2023-11-21T10:15:36;14.70;;;8.18;;
22160;SDS011;49035;48.812;11.762;2023-11-21T10:18:05;10.95;;;6.97;;
22160;SDS011;49035;48.812;11.762;2023-11-21T10:20:32;10.35;;;6.93;;
22160;SDS011;49035;48.812;11.762;2023-11-21T10:22:59;9.25;;;6.13;;
22160;SDS011;49035;48.812;11.762;2023-11-21T10:25:26;8.50;;;5.97;;
22160;SDS011;49035;48.812;11.762;2023-11-21T10:27:57;9.50;;;6.25;;
22160;SDS011;49035;48.812;11.762;2023-11-21T10:30:31;9.65;;;5.97;;
22160;SDS011;49035;48.812;11.762;2023-11-21T10:33:02;13.32;;;7.47;;
22160;SDS011;49035;48.812;11.762;2023-11-21T10:35:52;9.68;;;5.95;;
22160;SDS011;49035;48.812;11.762;2023-11-21T10:38:19;9.50;;;5.97;;
22160;SDS011;49035;48.812;11.762;2023-11-21T10:40:51;16.75;;;6.30;;
22160;SDS011;49035;48.812;11.762;2023-11-21T10:43:17;10.15;;;6.35;;
22160;SDS011;49035;48.812;11.762;2023-11-21T10:45:43;8.13;;;6.20;;
22160;SDS011;49035;48.812;11.762;2023-11-21T10:48:10;8.07;;;5.90;;
22160;SDS011;49035;48.812;11.762;2023-11-21T10:50:38;11.95;;;5.95;;
22160;SDS011;49035;48.812;11.762;2023-11-21T10:53:04;8.10;;;5.30;;
22160;SDS011;49035;48.812;11.762;2023-11-21T10:55:31;9.57;;;5.15;;
22160;SDS011;49035;48.812;11.762;2023-11-21T10:57:58;9.40;;;5.63;;
22160;SDS011;49035;48.812;11.762;2023-11-21T11:00:26;10.30;;;5.38;;
22160;SDS011;49035;48.812;11.762;2023-11-21T11:02:53;9.50;;;5.82;;
22160;SDS011;49035;48.812;11.762;2023-11-21T11:05:20;8.48;;;5.43;;
22160;SDS011;49035;48.812;11.762;2023-11-21T11:07:49;9.25;;;5.57;;
22160;SDS011;49035;48.812;11.762;2023-11-21T11:10:19;11.07;;;5.35;;
22160;SDS011;49035;48.812;11.762;2023-11-21T11:12:51;7.07;;;3.70;;
22160;SDS011;49035;48.812;11.762;2023-11-21T11:15:17;4.53;;;3.42;;
22160;SDS011;49035;48.812;11.762;2023-11-21T11:17:45;4.13;;;3.70;;
22160;SDS011;49035;48.812;11.762;2023-11-21T11:20:11;4.10;;;3.20;;
22160;SDS011;49035;48.812;11.762;2023-11-21T11:28:22;3.22;;;2.65;;
22160;SDS011;49035;48.812;11.762;2023-11-21T11:33:59;3.90;;;2.63;;
22160;SDS011;49035;48.812;11.762;2023-11-21T11:36:48;5.50;;;2.55;;
22160;SDS011;49035;48.812;11.762;2023-11-21T11:39:29;4.03;;;2.40;;
22160;SDS011;49035;48.812;11.762;2023-11-21T11:41:56;5.97;;;2.50;;
22160;SDS011;49035;48.812;11.762;2023-11-21T11:49:59;3.75;;;2.83;;
22160;SDS011;49035;48.812;11.762;2023-11-21T11:55:08;2.45;;;1.83;;
22160;SDS011;49035;48.812;11.762;2023-11-21T11:57:35;4.03;;;1.63;;
22160;SDS011;49035;48.812;11.762;2023-11-21T12:03:00;2.85;;;1.77;;
22160;SDS011;49035;48.812;11.762;2023-11-21T12:05:28;2.53;;;1.63;;
22160;SDS011;49035;48.812;11.762;2023-11-21T12:08:01;1.27;;;1.17;;
22160;SDS011;49035;48.812;11.762;2023-11-21T12:10:29;4.80;;;1.50;;
22160;SDS011;49035;48.812;11.762;2023-11-21T12:13:00;1.80;;;1.35;;
22160;SDS011;49035;48.812;11.762;2023-11-21T12:15:27;1.60;;;1.50;;
22160;SDS011;49035;48.812;11.762;2023-11-21T12:17:56;6.53;;;3.40;;
22160;SDS011;49035;48.812;11.762;2023-11-21T12:20:24;3.30;;;1.70;;
22160;SDS011;49035;48.812;11.762;2023-11-21T12:22:51;1.85;;;1.75;;
22160;SDS011;49035;48.812;11.762;2023-11-21T12:25:19;1.95;;;1.67;;
22160;SDS011;49035;48.812;11.762;2023-11-21T12:27:47;2.22;;;1.70;;
22160;SDS011;49035;48.812;11.762;2023-11-21T12:30:17;1.80;;;1.38;;
22160;SDS011;49035;48.812;11.762;2023-11-21T12:32:45;2.78;;;1.55;;
22160;SDS011;49035;48.812;11.762;2023-11-21T12:35:13;2.38;;;1.20;;
22160;SDS011;49035;48.812;11.762;2023-11-21T12:37:40;2.65;;;1.73;;
22160;SDS011;49035;48.812;11.762;2023-11-21T12:40:09;2.80;;;1.20;;
22160;SDS011;49035;48.812;11.762;2023-11-21T12:42:43;1.60;;;1.20;;
22160;SDS011;49035;48.812;11.762;2023-11-21T12:47:55;1.27;;;1.10;;
22160;SDS011;49035;48.812;11.762;2023-11-21T12:50:29;1.83;;;1.20;;
22160;SDS011;49035;48.812;11.762;2023-11-21T12:53:00;3.20;;;1.65;;
22160;SDS011;49035;48.812;11.762;2023-11-21T12:55:34;2.00;;;1.25;;
22160;SDS011;49035;48.812;11.762;2023-11-21T12:58:04;1.67;;;1.17;;
22160;SDS011;49035;48.812;11.762;2023-11-21T13:00:37;3.33;;;1.48;;
22160;SDS011;49035;48.812;11.762;2023-11-21T13:03:07;2.38;;;1.73;;
22160;SDS011;49035;48.812;11.762;2023-11-21T13:05:34;2.33;;;1.52;;
22160;SDS011;49035;48.812;11.762;2023-11-21T13:08:05;2.78;;;1.83;;
22160;SDS011;49035;48.812;11.762;2023-11-21T13:10:37;3.38;;;1.48;;
22160;SDS011;49035;48.812;11.762;2023-11-21T13:13:06;1.80;;;1.63;;
22160;SDS011;49035;48.812;11.762;2023-11-21T13:15:47;2.00;;;1.50;;
22160;SDS011;49035;48.812;11.762;2023-11-21T13:18:13;1.38;;;1.27;;
22160;SDS011;49035;48.812;11.762;2023-11-21T13:20:40;2.95;;;1.50;;
22160;SDS011;49035;48.812;11.762;2023-11-21T13:23:08;2.17;;;1.55;;
22160;SDS011;49035;48.812;11.762;2023-11-21T13:25:36;3.15;;;1.60;;
22160;SDS011;49035;48.812;11.762;2023-11-21T13:28:04;2.58;;;1.75;;
22160;SDS011;49035;48.812;11.762;2023-11-21T13:30:30;3.35;;;1.50;;
22160;SDS011;49035;48.812;11.762;2023-11-21T13:32:59;3.05;;;1.30;;
22160;SDS011;49035;48.812;11.762;2023-11-21T13:35:31;2.38;;;1.30;;
22160;SDS011;49035;48.812;11.762;2023-11-21T13:38:12;3.10;;;1.25;;
22160;SDS011;49035;48.812;11.762;2023-11-21T13:40:41;1.60;;;1.50;;
22160;SDS011;49035;48.812;11.762;2023-11-21T13:43:15;3.03;;;2.10;;
22160;SDS011;49035;48.812;11.762;2023-11-21T13:45:46;3.83;;;1.77;;
22160;SDS011;49035;48.812;11.762;2023-11-21T13:48:12;4.13;;;1.45;;
22160;SDS011;49035;48.812;11.762;2023-11-21T13:50:42;1.88;;;1.60;;
22160;SDS011;49035;48.812;11.762;2023-11-21T13:53:22;2.15;;;1.70;;
22160;SDS011;49035;48.812;11.762;2023-11-21T13:55:49;2.97;;;1.85;;
22160;SDS011;49035;48.812;11.762;2023-11-21T13:58:16;2.88;;;2.08;;
22160;SDS011;49035;48.812;11.762;2023-11-21T14:00:49;4.00;;;1.73;;
22160;SDS011;49035;48.812;11.762;2023-11-21T14:03:24;2.10;;;1.90;;
22160;SDS011;49035;48.812;11.762;2023-11-21T14:05:57;1.95;;;1.70;;
22160;SDS011;49035;48.812;11.762;2023-11-21T14:08:25;2.63;;;2.10;;
22160;SDS011;49035;48.812;11.762;2023-11-21T14:10:54;3.25;;;2.10;;
22160;SDS011;49035;48.812;11.762;2023-11-21T14:13:24;2.10;;;1.65;;
22160;SDS011;49035;48.812;11.762;2023-11-21T14:15:51;5.47;;;2.50;;
22160;SDS011;49035;48.812;11.762;2023-11-21T14:18:23;5.50;;;2.17;;
22160;SDS011;49035;48.812;11.762;2023-11-21T14:20:56;3.50;;;1.83;;
22160;SDS011;49035;48.812;11.762;2023-11-21T14:23:22;2.25;;;1.65;;
22160;SDS011;49035;48.812;11.762;2023-11-21T14:25:48;2.58;;;1.80;;
22160;SDS011;49035;48.812;11.762;2023-11-21T14:28:15;5.60;;;2.35;;
22160;SDS011;49035;48.812;11.762;2023-11-21T14:30:40;4.10;;;1.85;;
22160;SDS011;49035;48.812;11.762;2023-11-21T14:33:07;4.20;;;1.50;;
22160;SDS011;49035;48.812;11.762;2023-11-21T14:35:34;3.38;;;1.80;;
22160;SDS011;49035;48.812;11.762;2023-11-21T14:38:00;2.47;;;1.80;;
22160;SDS011;49035;48.812;11.762;2023-11-21T14:40:29;3.60;;;1.83;;
22160;SDS011;49035;48.812;11.762;2023-11-21T14:42:59;2.85;;;1.83;;
22160;SDS011;49035;48.812;11.762;2023-11-21T14:45:30;3.92;;;1.80;;
22160;SDS011;49035;48.812;11.762;2023-11-21T14:47:56;2.67;;;1.90;;
22160;SDS011;49035;48.812;11.762;2023-11-21T14:50:34;3.22;;;2.28;;